sensor_id;sensor_type;location;lat;lon;timestamp;pressure;altitude;pressure_sealevel;temperature;humidity
73870;BME280;64924;42.140;24.762;2023-05-29T00:00:38;99295.63;;;20.49;60.95
73870;BME280;64924;42.140;24.762;2023-05-29T00:03:03;99300.03;;;20.50;60.93
73870;BME280;64924;42.140;24.762;2023-05-29T00:05:30;99287.34;;;20.49;60.71
73870;BME280;64924;42.140;24.762;2023-05-29T00:07:55;99297.84;;;20.52;60.54
73870;BME280;64924;42.140;24.762;2023-05-29T00:10:21;99296.75;;;20.53;60.77
73870;BME280;64924;42.140;24.762;2023-05-29T00:12:46;99293.97;;;20.53;60.70
73870;BME280;64924;42.140;24.762;2023-05-29T00:15:11;99296.44;;;20.50;60.69
73870;BME280;64924;42.140;24.762;2023-05-29T00:17:37;99294.78;;;20.49;60.45
73870;BME280;64924;42.140;24.762;2023-05-29T00:20:03;99305.25;;;20.47;60.76
73870;BME280;64924;42.140;24.762;2023-05-29T00:22:32;99302.75;;;20.45;60.90
73870;BME280;64924;42.140;24.762;2023-05-29T00:24:57;99302.22;;;20.38;60.89
73870;BME280;64924;42.140;24.762;2023-05-29T00:27:23;99293.94;;;20.38;60.85
73870;BME280;64924;42.140;24.762;2023-05-29T00:29:48;99296.97;;;20.42;60.63
73870;BME280;64924;42.140;24.762;2023-05-29T00:32:13;99290.06;;;20.39;60.55
73870;BME280;64924;42.140;24.762;2023-05-29T00:34:38;99288.13;;;20.40;60.66
73870;BME280;64924;42.140;24.762;2023-05-29T00:37:04;99288.13;;;20.40;60.82
73870;BME280;64924;42.140;24.762;2023-05-29T00:39:29;99286.75;;;20.42;60.83
73870;BME280;64924;42.140;24.762;2023-05-29T00:41:55;99290.06;;;20.39;61.04
73870;BME280;64924;42.140;24.762;2023-05-29T00:44:21;99286.47;;;20.39;60.97
73870;BME280;64924;42.140;24.762;2023-05-29T00:46:47;99291.72;;;20.40;60.98
73870;BME280;64924;42.140;24.762;2023-05-29T00:49:13;99288.13;;;20.45;61.07
73870;BME280;64924;42.140;24.762;2023-05-29T00:51:39;99283.19;;;20.47;60.95
73870;BME280;64924;42.140;24.762;2023-05-29T00:54:09;99283.19;;;20.47;60.69
73870;BME280;64924;42.140;24.762;2023-05-29T00:56:38;99250.53;;;20.28;60.67
73870;BME280;64924;42.140;24.762;2023-05-29T00:59:03;99250.25;;;20.30;60.98
73870;BME280;64924;42.140;24.762;2023-05-29T01:01:28;99281.78;;;20.44;61.64
73870;BME280;64924;42.140;24.762;2023-05-29T01:03:56;99280.38;;;20.36;61.76
73870;BME280;64924;42.140;24.762;2023-05-29T01:06:22;99285.31;;;20.34;61.73
73870;BME280;64924;42.140;24.762;2023-05-29T01:08:48;99279.31;;;20.38;61.59
73870;BME280;64924;42.140;24.762;2023-05-29T01:11:21;99280.44;;;20.42;61.43
73870;BME280;64924;42.140;24.762;2023-05-29T01:13:51;99271.84;;;20.43;61.46
73870;BME280;64924;42.140;24.762;2023-05-29T01:16:26;99277.66;;;20.47;61.30
73870;BME280;64924;42.140;24.762;2023-05-29T01:29:00;99273.78;;;20.43;60.74
73870;BME280;64924;42.140;24.762;2023-05-29T01:31:27;99270.19;;;20.42;60.80
73870;BME280;64924;42.140;24.762;2023-05-29T01:33:53;99270.19;;;20.42;60.37
73870;BME280;64924;42.140;24.762;2023-05-29T01:36:19;99268.25;;;20.38;60.52
73870;BME280;64924;42.140;24.762;2023-05-29T01:38:45;99269.09;;;20.38;60.32
73870;BME280;64924;42.140;24.762;2023-05-29T01:41:10;99263.56;;;20.38;60.14
73870;BME280;64924;42.140;24.762;2023-05-29T01:43:36;99269.09;;;20.38;59.97
73870;BME280;64924;42.140;24.762;2023-05-29T01:46:02;99264.91;;;20.35;59.81
73870;BME280;64924;42.140;24.762;2023-05-29T01:48:27;99271.25;;;20.36;59.77
73870;BME280;64924;42.140;24.762;2023-05-29T01:50:53;99265.75;;;20.36;59.40
73870;BME280;64924;42.140;24.762;2023-05-29T01:53:19;99261.88;;;20.37;59.25
73870;BME280;64924;42.140;24.762;2023-05-29T01:55:45;99265.75;;;20.36;59.33
73870;BME280;64924;42.140;24.762;2023-05-29T01:58:10;99266.34;;;20.38;59.10
73870;BME280;64924;42.140;24.762;2023-05-29T02:00:36;99275.13;;;20.35;59.34
73870;BME280;64924;42.140;24.762;2023-05-29T02:03:02;99270.44;;;20.35;59.17
73870;BME280;64924;42.140;24.762;2023-05-29T02:05:28;99277.88;;;20.35;59.03
73870;BME280;64924;42.140;24.762;2023-05-29T02:07:53;99274.03;;;20.36;58.72
73870;BME280;64924;42.140;24.762;2023-05-29T02:10:19;99279.03;;;20.39;58.61
73870;BME280;64924;42.140;24.762;2023-05-29T02:12:44;99249.66;;;20.23;58.56
73870;BME280;64924;42.140;24.762;2023-05-29T02:15:10;99287.31;;;20.44;58.71
73870;BME280;64924;42.140;24.762;2023-05-29T02:17:36;99275.69;;;20.42;58.85
73870;BME280;64924;42.140;24.762;2023-05-29T02:20:01;99276.53;;;20.38;58.99
73870;BME280;64924;42.140;24.762;2023-05-29T02:22:28;99279.88;;;20.40;59.03
73870;BME280;64924;42.140;24.762;2023-05-29T02:24:53;99281.22;;;20.42;58.46
73870;BME280;64924;42.140;24.762;2023-05-29T02:27:18;99276.53;;;20.43;58.48
73870;BME280;64924;42.140;24.762;2023-05-29T02:29:45;99280.97;;;20.44;58.64
73870;BME280;64924;42.140;24.762;2023-05-29T02:32:10;99277.09;;;20.40;59.10
73870;BME280;64924;42.140;24.762;2023-05-29T02:34:35;99278.16;;;20.33;59.26
73870;BME280;64924;42.140;24.762;2023-05-29T02:37:01;99285.59;;;20.33;59.44
73870;BME280;64924;42.140;24.762;2023-05-29T02:39:26;99283.41;;;20.35;58.93
73870;BME280;64924;42.140;24.762;2023-05-29T02:41:51;99286.97;;;20.35;58.84
73870;BME280;64924;42.140;24.762;2023-05-29T02:44:17;99283.97;;;20.37;58.92
73870;BME280;64924;42.140;24.762;2023-05-29T02:46:42;99282.06;;;20.38;58.72
73870;BME280;64924;42.140;24.762;2023-05-29T02:49:07;99275.13;;;20.35;58.86
73870;BME280;64924;42.140;24.762;2023-05-29T02:51:33;99277.31;;;20.33;59.00
73870;BME280;64924;42.140;24.762;2023-05-29T02:53:58;99282.28;;;20.31;58.97
73870;BME280;64924;42.140;24.762;2023-05-29T02:56:23;99280.06;;;20.33;59.10
73870;BME280;64924;42.140;24.762;2023-05-29T02:58:51;99280.63;;;20.35;59.18
73870;BME280;64924;42.140;24.762;2023-05-29T03:01:17;99289.47;;;20.37;58.75
73870;BME280;64924;42.140;24.762;2023-05-29T03:03:42;99288.91;;;20.35;58.74
73870;BME280;64924;42.140;24.762;2023-05-29T03:06:08;99297.16;;;20.30;59.10
73870;BME280;64924;42.140;24.762;2023-05-29T03:08:35;99293.81;;;20.23;59.39
73870;BME280;64924;42.140;24.762;2023-05-29T03:11:00;99271.38;;;20.04;59.37
73870;BME280;64924;42.140;24.762;2023-05-29T03:13:26;99296.56;;;20.23;59.67
73870;BME280;64924;42.140;24.762;2023-05-29T03:15:52;99296.31;;;20.24;59.70
73870;BME280;64924;42.140;24.762;2023-05-29T03:18:22;99292.72;;;20.24;59.56
73870;BME280;64924;42.140;24.762;2023-05-29T03:20:47;99299.06;;;20.24;59.72
73870;BME280;64924;42.140;24.762;2023-05-29T03:23:13;99305.16;;;20.26;59.40
73870;BME280;64924;42.140;24.762;2023-05-29T03:25:38;99309.81;;;20.26;59.40
73870;BME280;64924;42.140;24.762;2023-05-29T03:28:03;99311.50;;;20.27;59.62
73870;BME280;64924;42.140;24.762;2023-05-29T03:30:29;99306.25;;;20.25;59.75
73870;BME280;64924;42.140;24.762;2023-05-29T03:32:54;99307.06;;;20.26;59.65
73870;BME280;64924;42.140;24.762;2023-05-29T03:35:20;99308.47;;;20.28;59.92
73870;BME280;64924;42.140;24.762;2023-05-29T03:37:45;99302.13;;;20.28;59.88
73870;BME280;64924;42.140;24.762;2023-05-29T03:40:11;99310.38;;;20.28;59.97
73870;BME280;64924;42.140;24.762;2023-05-29T03:42:36;99317.56;;;20.29;59.98
73870;BME280;64924;42.140;24.762;2023-05-29T03:45:02;99322.00;;;20.30;59.91
73870;BME280;64924;42.140;24.762;2023-05-29T03:47:27;99314.28;;;20.32;60.03
73870;BME280;64924;42.140;24.762;2023-05-29T03:49:52;99312.09;;;20.34;59.96
73870;BME280;64924;42.140;24.762;2023-05-29T03:52:18;99316.50;;;20.35;59.84
73870;BME280;64924;42.140;24.762;2023-05-29T03:54:43;99315.19;;;20.38;60.08
73870;BME280;64924;42.140;24.762;2023-05-29T03:57:09;99320.44;;;20.39;59.84
73870;BME280;64924;42.140;24.762;2023-05-29T03:59:35;99316.00;;;20.43;59.78
73870;BME280;64924;42.140;24.762;2023-05-29T04:02:00;99322.13;;;20.50;59.39
73870;BME280;64924;42.140;24.762;2023-05-29T04:04:26;99321.84;;;20.52;59.28
73870;BME280;64924;42.140;24.762;2023-05-29T04:06:52;99324.91;;;20.55;59.04
73870;BME280;64924;42.140;24.762;2023-05-29T04:09:17;99327.41;;;20.57;59.04
73870;BME280;64924;42.140;24.762;2023-05-29T04:11:43;99329.06;;;20.58;59.04
73870;BME280;64924;42.140;24.762;2023-05-29T04:14:09;99329.63;;;20.60;58.79
73870;BME280;64924;42.140;24.762;2023-05-29T04:16:34;99333.78;;;20.62;58.33
73870;BME280;64924;42.140;24.762;2023-05-29T04:19:00;99334.91;;;20.66;58.03
73870;BME280;64924;42.140;24.762;2023-05-29T04:21:25;99337.41;;;20.73;57.87
73870;BME280;64924;42.140;24.762;2023-05-29T04:23:51;99335.22;;;20.75;57.73
73870;BME280;64924;42.140;24.762;2023-05-29T04:26:17;99346.56;;;20.79;57.70
73870;BME280;64924;42.140;24.762;2023-05-29T04:28:43;99339.34;;;20.83;57.53
73870;BME280;64924;42.140;24.762;2023-05-29T04:31:08;99343.22;;;20.82;57.49
73870;BME280;64924;42.140;24.762;2023-05-29T04:33:39;99351.50;;;20.77;57.54
73870;BME280;64924;42.140;24.762;2023-05-29T04:36:05;99358.13;;;20.76;57.52
73870;BME280;64924;42.140;24.762;2023-05-29T04:38:30;99358.44;;;20.79;57.24
73870;BME280;64924;42.140;24.762;2023-05-29T04:40:56;99356.75;;;20.78;57.17
73870;BME280;64924;42.140;24.762;2023-05-29T04:43:23;99365.31;;;20.77;57.08
73870;BME280;64924;42.140;24.762;2023-05-29T04:45:51;99357.59;;;20.79;57.40
73870;BME280;64924;42.140;24.762;2023-05-29T04:48:17;99358.13;;;20.76;57.49
73870;BME280;64924;42.140;24.762;2023-05-29T04:50:42;99357.03;;;20.77;57.36
73870;BME280;64924;42.140;24.762;2023-05-29T04:53:09;99355.94;;;20.78;57.12
73870;BME280;64924;42.140;24.762;2023-05-29T04:55:35;99354.84;;;20.79;57.33
73870;BME280;64924;42.140;24.762;2023-05-29T04:58:01;99364.75;;;20.80;57.13
73870;BME280;64924;42.140;24.762;2023-05-29T05:00:26;99366.72;;;20.79;57.30
73870;BME280;64924;42.140;24.762;2023-05-29T05:02:51;99368.34;;;20.80;57.38
73870;BME280;64924;42.140;24.762;2023-05-29T05:05:17;99373.31;;;20.83;57.16
73870;BME280;64924;42.140;24.762;2023-05-29T05:07:42;99378.31;;;20.86;57.40
73870;BME280;64924;42.140;24.762;2023-05-29T05:10:08;99373.63;;;20.87;57.19
73870;BME280;64924;42.140;24.762;2023-05-29T05:12:33;99373.88;;;20.85;57.22
73870;BME280;64924;42.140;24.762;2023-05-29T05:14:59;99371.69;;;20.87;57.18
73870;BME280;64924;42.140;24.762;2023-05-29T05:17:24;99371.69;;;20.87;57.05
73870;BME280;64924;42.140;24.762;2023-05-29T05:19:49;99373.09;;;20.90;56.58
73870;BME280;64924;42.140;24.762;2023-05-29T05:22:17;99383.31;;;20.94;56.59
73870;BME280;64924;42.140;24.762;2023-05-29T05:24:42;99386.09;;;20.99;56.44
73870;BME280;64924;42.140;24.762;2023-05-29T05:27:07;99378.09;;;21.03;56.30
73870;BME280;64924;42.140;24.762;2023-05-29T05:29:33;99384.22;;;21.10;56.12
73870;BME280;64924;42.140;24.762;2023-05-29T05:31:58;99388.66;;;21.16;55.92
73870;BME280;64924;42.140;24.762;2023-05-29T05:34:23;99380.94;;;21.23;55.63
73870;BME280;64924;42.140;24.762;2023-05-29T05:36:49;99389.19;;;21.18;55.14
73870;BME280;64924;42.140;24.762;2023-05-29T05:39:14;99398.03;;;21.20;55.15
73870;BME280;64924;42.140;24.762;2023-05-29T05:41:39;99396.38;;;21.19;55.50
73870;BME280;64924;42.140;24.762;2023-05-29T05:44:05;99401.16;;;21.34;55.13
73870;BME280;64924;42.140;24.762;2023-05-29T05:46:30;99401.75;;;21.46;54.88
73870;BME280;64924;42.140;24.762;2023-05-29T05:48:56;99407.28;;;21.56;54.32
73870;BME280;64924;42.140;24.762;2023-05-29T05:51:25;99399.84;;;21.67;53.88
73870;BME280;64924;42.140;24.762;2023-05-29T05:53:51;99397.09;;;21.77;53.53
73870;BME280;64924;42.140;24.762;2023-05-29T05:56:17;99401.53;;;21.83;53.14
73870;BME280;64924;42.140;24.762;2023-05-29T05:58:42;99403.47;;;21.88;53.16
73870;BME280;64924;42.140;24.762;2023-05-29T06:01:07;99404.81;;;21.95;53.14
73870;BME280;64924;42.140;24.762;2023-05-29T06:03:33;99341.22;;;21.70;53.24
73870;BME280;64924;42.140;24.762;2023-05-29T06:05:59;99394.34;;;22.18;52.88
73870;BME280;64924;42.140;24.762;2023-05-29T06:08:24;99394.03;;;22.40;52.64
73870;BME280;64924;42.140;24.762;2023-05-29T06:10:50;99391.22;;;22.55;52.12
73870;BME280;64924;42.140;24.762;2023-05-29T06:13:15;99385.91;;;22.68;51.75
73870;BME280;64924;42.140;24.762;2023-05-29T06:15:42;99388.66;;;22.74;51.48
73870;BME280;64924;42.140;24.762;2023-05-29T06:18:07;99388.69;;;22.79;51.42
73870;BME280;64924;42.140;24.762;2023-05-29T06:20:33;99380.91;;;22.81;51.19
73870;BME280;64924;42.140;24.762;2023-05-29T06:22:58;99387.81;;;22.93;50.75
73870;BME280;64924;42.140;24.762;2023-05-29T06:25:23;99386.91;;;23.03;50.52
73870;BME280;64924;42.140;24.762;2023-05-29T06:27:57;99384.69;;;23.05;50.61
73870;BME280;64924;42.140;24.762;2023-05-29T06:30:23;99387.97;;;23.12;50.52
73870;BME280;64924;42.140;24.762;2023-05-29T06:32:48;99395.16;;;23.18;50.15
73870;BME280;64924;42.140;24.762;2023-05-29T06:35:13;99393.19;;;23.24;49.98
73870;BME280;64924;42.140;24.762;2023-05-29T06:37:39;99398.72;;;23.29;49.86
73870;BME280;64924;42.140;24.762;2023-05-29T06:40:04;99394.28;;;23.28;49.62
73870;BME280;64924;42.140;24.762;2023-05-29T06:42:30;99397.88;;;23.33;49.56
73870;BME280;64924;42.140;24.762;2023-05-29T06:44:55;99397.78;;;23.44;49.42
73870;BME280;64924;42.140;24.762;2023-05-29T06:47:20;99393.28;;;23.58;49.18
73870;BME280;64924;42.140;24.762;2023-05-29T06:49:45;99397.56;;;23.79;48.82
73870;BME280;64924;42.140;24.762;2023-05-29T06:52:11;99399.09;;;23.95;48.65
73870;BME280;64924;42.140;24.762;2023-05-29T06:54:36;99400.34;;;24.13;48.16
73870;BME280;64924;42.140;24.762;2023-05-29T06:57:01;99396.56;;;24.33;47.65
73870;BME280;64924;42.140;24.762;2023-05-29T06:59:27;99396.00;;;24.36;47.50
73870;BME280;64924;42.140;24.762;2023-05-29T07:01:52;99392.53;;;24.49;47.19
73870;BME280;64924;42.140;24.762;2023-05-29T07:04:17;99386.25;;;24.62;46.67
73870;BME280;64924;42.140;24.762;2023-05-29T07:06:43;99392.50;;;24.78;46.34
73870;BME280;64924;42.140;24.762;2023-05-29T07:09:08;99386.34;;;25.05;45.74
73870;BME280;64924;42.140;24.762;2023-05-29T07:11:33;99390.41;;;25.31;45.46
73870;BME280;64924;42.140;24.762;2023-05-29T07:13:59;99394.81;;;25.56;44.76
73870;BME280;64924;42.140;24.762;2023-05-29T07:16:25;99391.50;;;25.73;44.10
73870;BME280;64924;42.140;24.762;2023-05-29T07:18:50;99396.03;;;25.69;44.23
73870;BME280;64924;42.140;24.762;2023-05-29T07:21:16;99396.47;;;25.57;44.07
73870;BME280;64924;42.140;24.762;2023-05-29T07:23:42;99405.63;;;25.58;44.37
73870;BME280;64924;42.140;24.762;2023-05-29T07:26:07;99399.31;;;25.52;44.54
73870;BME280;64924;42.140;24.762;2023-05-29T07:28:32;99399.91;;;25.49;44.40
73870;BME280;64924;42.140;24.762;2023-05-29T07:30:58;99399.38;;;25.47;44.59
73870;BME280;64924;42.140;24.762;2023-05-29T07:33:23;99400.72;;;25.31;44.48
73870;BME280;64924;42.140;24.762;2023-05-29T07:35:48;99397.16;;;25.07;44.45
73870;BME280;64924;42.140;24.762;2023-05-29T07:38:14;99394.78;;;25.19;44.53
73870;BME280;64924;42.140;24.762;2023-05-29T07:40:39;99405.97;;;25.32;44.59
73870;BME280;64924;42.140;24.762;2023-05-29T07:43:04;99403.00;;;25.48;44.26
73870;BME280;64924;42.140;24.762;2023-05-29T07:45:30;99408.44;;;25.58;43.85
73870;BME280;64924;42.140;24.762;2023-05-29T07:49:19;99401.88;;;25.68;43.79
73870;BME280;64924;42.140;24.762;2023-05-29T07:51:44;99400.84;;;25.82;43.51
73870;BME280;64924;42.140;24.762;2023-05-29T07:54:10;99397.28;;;25.95;43.26
73870;BME280;64924;42.140;24.762;2023-05-29T07:56:35;99405.97;;;26.08;42.99
73870;BME280;64924;42.140;24.762;2023-05-29T07:59:01;99410.69;;;26.26;42.58
73870;BME280;64924;42.140;24.762;2023-05-29T08:01:26;99409.81;;;26.44;42.35
73870;BME280;64924;42.140;24.762;2023-05-29T08:03:52;99409.59;;;26.41;42.53
73870;BME280;64924;42.140;24.762;2023-05-29T08:06:17;99400.22;;;26.50;42.06
73870;BME280;64924;42.140;24.762;2023-05-29T08:08:43;99407.75;;;26.50;41.28
73870;BME280;64924;42.140;24.762;2023-05-29T08:11:08;99398.06;;;26.47;41.43
73870;BME280;64924;42.140;24.762;2023-05-29T08:13:34;99406.41;;;26.47;41.21
73870;BME280;64924;42.140;24.762;2023-05-29T08:16:00;99410.25;;;26.51;41.44
73870;BME280;64924;42.140;24.762;2023-05-29T08:18:26;99400.56;;;26.62;41.14
73870;BME280;64924;42.140;24.762;2023-05-29T08:20:51;99398.00;;;26.66;41.60
73870;BME280;64924;42.140;24.762;2023-05-29T08:23:18;99386.00;;;26.79;41.75
73870;BME280;64924;42.140;24.762;2023-05-29T08:25:44;99393.78;;;26.96;40.38
73870;BME280;64924;42.140;24.762;2023-05-29T08:28:10;99397.28;;;27.15;40.89
73870;BME280;64924;42.140;24.762;2023-05-29T08:30:35;99386.03;;;27.56;40.18
73870;BME280;64924;42.140;24.762;2023-05-29T08:33:02;99374.63;;;27.80;39.34
73870;BME280;64924;42.140;24.762;2023-05-29T08:35:28;99388.81;;;27.92;38.55
73870;BME280;64924;42.140;24.762;2023-05-29T08:37:54;99387.81;;;28.33;37.80
73870;BME280;64924;42.140;24.762;2023-05-29T08:40:19;99345.25;;;28.36;37.94
73870;BME280;64924;42.140;24.762;2023-05-29T08:42:47;99384.25;;;29.20;36.68
73870;BME280;64924;42.140;24.762;2023-05-29T08:45:18;99381.84;;;29.71;35.41
73870;BME280;64924;42.140;24.762;2023-05-29T08:47:44;99374.94;;;29.68;34.78
73870;BME280;64924;42.140;24.762;2023-05-29T08:50:15;99357.47;;;29.71;33.84
73870;BME280;64924;42.140;24.762;2023-05-29T08:52:43;99367.69;;;29.93;33.90
73870;BME280;64924;42.140;24.762;2023-05-29T08:55:09;99363.09;;;30.06;32.86
73870;BME280;64924;42.140;24.762;2023-05-29T08:57:36;99354.19;;;30.04;33.34
73870;BME280;64924;42.140;24.762;2023-05-29T09:00:04;99363.41;;;30.04;33.22
73870;BME280;64924;42.140;24.762;2023-05-29T09:02:39;99354.66;;;29.88;33.40
73870;BME280;64924;42.140;24.762;2023-05-29T09:05:05;99333.25;;;29.49;33.54
73870;BME280;64924;42.140;24.762;2023-05-29T09:07:32;99354.63;;;29.37;34.03
73870;BME280;64924;42.140;24.762;2023-05-29T09:09:59;99365.31;;;29.17;35.17
73870;BME280;64924;42.140;24.762;2023-05-29T09:12:26;99358.00;;;28.90;35.08
73870;BME280;64924;42.140;24.762;2023-05-29T09:14:52;99362.34;;;28.74;35.45
73870;BME280;64924;42.140;24.762;2023-05-29T09:17:17;99366.44;;;28.68;35.30
73870;BME280;64924;42.140;24.762;2023-05-29T09:19:43;99367.75;;;28.71;35.73
73870;BME280;64924;42.140;24.762;2023-05-29T09:22:12;99369.88;;;28.56;36.04
73870;BME280;64924;42.140;24.762;2023-05-29T09:24:40;99360.81;;;28.59;35.66
73870;BME280;64924;42.140;24.762;2023-05-29T09:27:08;99371.94;;;28.20;36.57
73870;BME280;64924;42.140;24.762;2023-05-29T09:29:38;99361.41;;;28.17;36.76
73870;BME280;64924;42.140;24.762;2023-05-29T09:32:13;99360.06;;;28.14;36.52
73870;BME280;64924;42.140;24.762;2023-05-29T09:34:39;99358.47;;;28.00;36.17
73870;BME280;64924;42.140;24.762;2023-05-29T09:37:07;99327.66;;;27.82;35.96
73870;BME280;64924;42.140;24.762;2023-05-29T09:39:47;99369.09;;;28.11;35.99
73870;BME280;64924;42.140;24.762;2023-05-29T09:42:14;99368.19;;;28.02;36.23
73870;BME280;64924;42.140;24.762;2023-05-29T09:44:44;99375.38;;;27.94;36.11
73870;BME280;64924;42.140;24.762;2023-05-29T09:47:14;99372.94;;;28.02;36.68
73870;BME280;64924;42.140;24.762;2023-05-29T09:49:43;99370.03;;;28.07;36.75
73870;BME280;64924;42.140;24.762;2023-05-29T09:52:12;99356.06;;;28.07;36.45
73870;BME280;64924;42.140;24.762;2023-05-29T09:54:41;99320.75;;;27.80;36.94
73870;BME280;64924;42.140;24.762;2023-05-29T09:57:07;99337.84;;;28.09;36.21
73870;BME280;64924;42.140;24.762;2023-05-29T09:59:35;99340.56;;;28.23;36.07
73870;BME280;64924;42.140;24.762;2023-05-29T10:02:03;99332.41;;;28.35;35.67
73870;BME280;64924;42.140;24.762;2023-05-29T10:04:33;99336.28;;;28.48;35.35
73870;BME280;64924;42.140;24.762;2023-05-29T10:07:08;99298.56;;;28.37;35.00
73870;BME280;64924;42.140;24.762;2023-05-29T10:09:38;99332.56;;;28.70;34.70
73870;BME280;64924;42.140;24.762;2023-05-29T10:12:07;99329.47;;;28.80;34.40
73870;BME280;64924;42.140;24.762;2023-05-29T10:14:34;99325.03;;;28.79;33.20
73870;BME280;64924;42.140;24.762;2023-05-29T10:17:02;99327.00;;;28.78;33.62
73870;BME280;64924;42.140;24.762;2023-05-29T10:19:33;99329.69;;;28.83;34.93
73870;BME280;64924;42.140;24.762;2023-05-29T10:22:01;99293.25;;;28.75;34.48
73870;BME280;64924;42.140;24.762;2023-05-29T10:24:28;99291.09;;;28.63;35.02
73870;BME280;64924;42.140;24.762;2023-05-29T10:26:55;99294.88;;;28.58;34.03
73870;BME280;64924;42.140;24.762;2023-05-29T10:29:43;99317.88;;;29.04;34.08
73870;BME280;64924;42.140;24.762;2023-05-29T10:32:28;99296.97;;;29.01;33.49
73870;BME280;64924;42.140;24.762;2023-05-29T10:35:17;99305.38;;;29.10;33.46
73870;BME280;64924;42.140;24.762;2023-05-29T10:38:02;99247.22;;;28.81;32.99
73870;BME280;64924;42.140;24.762;2023-05-29T10:40:34;99186.91;;;28.23;33.66
73870;BME280;64924;42.140;24.762;2023-05-29T10:43:00;99222.34;;;28.53;33.42
73870;BME280;64924;42.140;24.762;2023-05-29T10:47:56;99288.94;;;29.25;33.01
73870;BME280;64924;42.140;24.762;2023-05-29T10:50:43;99266.88;;;29.15;33.29
73870;BME280;64924;42.140;24.762;2023-05-29T10:53:14;99240.84;;;28.98;33.31
73870;BME280;64924;42.140;24.762;2023-05-29T10:55:42;99286.25;;;28.86;33.00
73870;BME280;64924;42.140;24.762;2023-05-29T10:58:24;99257.78;;;28.84;33.17
73870;BME280;64924;42.140;24.762;2023-05-29T11:00:51;99281.16;;;28.88;33.66
73870;BME280;64924;42.140;24.762;2023-05-29T11:03:39;99258.78;;;28.97;33.25
73870;BME280;64924;42.140;24.762;2023-05-29T11:06:18;99281.00;;;28.93;33.32
73870;BME280;64924;42.140;24.762;2023-05-29T11:08:53;99297.16;;;29.13;33.92
73870;BME280;64924;42.140;24.762;2023-05-29T11:11:31;99289.28;;;29.58;33.39
73870;BME280;64924;42.140;24.762;2023-05-29T11:14:04;99279.69;;;29.94;32.51
73870;BME280;64924;42.140;24.762;2023-05-29T11:18:58;99239.03;;;30.26;31.55
73870;BME280;64924;42.140;24.762;2023-05-29T11:21:29;99283.38;;;30.71;31.27
73870;BME280;64924;42.140;24.762;2023-05-29T11:23:57;99266.69;;;30.36;30.88
73870;BME280;64924;42.140;24.762;2023-05-29T11:26:27;99223.72;;;29.68;31.51
73870;BME280;64924;42.140;24.762;2023-05-29T11:28:57;99280.66;;;29.98;31.55
73870;BME280;64924;42.140;24.762;2023-05-29T11:31:23;99253.66;;;29.76;31.87
73870;BME280;64924;42.140;24.762;2023-05-29T11:33:50;99286.09;;;29.94;32.33
73870;BME280;64924;42.140;24.762;2023-05-29T11:36:18;99247.94;;;29.38;32.48
73870;BME280;64924;42.140;24.762;2023-05-29T11:38:46;99252.69;;;28.86;32.83
73870;BME280;64924;42.140;24.762;2023-05-29T11:41:12;99283.00;;;29.10;32.95
73870;BME280;64924;42.140;24.762;2023-05-29T11:43:38;99251.06;;;28.93;33.48
73870;BME280;64924;42.140;24.762;2023-05-29T11:46:17;99227.16;;;28.79;34.02
73870;BME280;64924;42.140;24.762;2023-05-29T11:48:47;99224.16;;;28.67;33.43
73870;BME280;64924;42.140;24.762;2023-05-29T11:51:15;99239.97;;;28.80;33.84
73870;BME280;64924;42.140;24.762;2023-05-29T11:53:41;99251.56;;;29.04;33.71
73870;BME280;64924;42.140;24.762;2023-05-29T11:56:10;99266.38;;;29.13;33.71
73870;BME280;64924;42.140;24.762;2023-05-29T11:58:39;99236.69;;;28.78;33.67
73870;BME280;64924;42.140;24.762;2023-05-29T12:01:07;99183.72;;;28.73;33.38
73870;BME280;64924;42.140;24.762;2023-05-29T12:03:56;99211.25;;;29.14;33.77
73870;BME280;64924;42.140;24.762;2023-05-29T12:06:35;99247.09;;;29.38;33.78
73870;BME280;64924;42.140;24.762;2023-05-29T12:09:08;99213.22;;;29.13;33.90
73870;BME280;64924;42.140;24.762;2023-05-29T12:11:35;99206.13;;;29.07;33.73
73870;BME280;64924;42.140;24.762;2023-05-29T12:14:01;99223.75;;;29.25;33.71
73870;BME280;64924;42.140;24.762;2023-05-29T12:16:28;99218.81;;;29.31;32.87
73870;BME280;64924;42.140;24.762;2023-05-29T12:18:55;99236.59;;;29.43;33.19
73870;BME280;64924;42.140;24.762;2023-05-29T12:21:22;99204.66;;;29.18;32.58
73870;BME280;64924;42.140;24.762;2023-05-29T12:23:52;99241.88;;;29.27;32.50
73870;BME280;64924;42.140;24.762;2023-05-29T12:26:17;99222.38;;;28.79;32.91
73870;BME280;64924;42.140;24.762;2023-05-29T12:28:47;99181.72;;;28.65;32.95
73870;BME280;64924;42.140;24.762;2023-05-29T12:31:13;99169.06;;;28.67;33.48
73870;BME280;64924;42.140;24.762;2023-05-29T12:33:44;99236.25;;;29.10;33.56
73870;BME280;64924;42.140;24.762;2023-05-29T12:36:12;99213.56;;;28.94;33.25
73870;BME280;64924;42.140;24.762;2023-05-29T12:38:52;99216.28;;;28.77;33.40
73870;BME280;64924;42.140;24.762;2023-05-29T12:41:29;99199.47;;;28.43;33.18
73870;BME280;64924;42.140;24.762;2023-05-29T12:43:57;99240.84;;;28.32;33.51
73870;BME280;64924;42.140;24.762;2023-05-29T12:46:26;99190.41;;;27.67;34.35
73870;BME280;64924;42.140;24.762;2023-05-29T12:48:53;99226.81;;;27.84;34.53
73870;BME280;64924;42.140;24.762;2023-05-29T12:51:26;99225.75;;;27.71;35.27
73870;BME280;64924;42.140;24.762;2023-05-29T12:53:52;99228.28;;;27.37;35.91
73870;BME280;64924;42.140;24.762;2023-05-29T12:56:23;99201.59;;;27.00;36.34
73870;BME280;64924;42.140;24.762;2023-05-29T12:58:50;99177.38;;;26.73;36.48
73870;BME280;64924;42.140;24.762;2023-05-29T13:01:17;99241.53;;;26.95;37.12
73870;BME280;64924;42.140;24.762;2023-05-29T13:03:42;99157.09;;;26.45;36.95
73870;BME280;64924;42.140;24.762;2023-05-29T13:06:08;99129.22;;;26.45;36.70